sensor_id;sensor_type;location;lat;lon;timestamp;P1;durP1;ratioP1;P2;durP2;ratioP2
44989;SDS011;30723;51.206;3.326;2023-03-13T00:01:09;25.00;;;7.45;;
44989;SDS011;30723;51.206;3.326;2023-03-13T00:03:43;21.92;;;6.25;;
44989;SDS011;30723;51.206;3.326;2023-03-13T00:06:10;16.73;;;6.18;;
44989;SDS011;30723;51.206;3.326;2023-03-13T00:08:36;23.13;;;6.47;;
44989;SDS011;30723;51.206;3.326;2023-03-13T00:11:03;27.30;;;6.03;;
44989;SDS011;30723;51.206;3.326;2023-03-13T00:13:31;27.58;;;6.43;;
44989;SDS011;30723;51.206;3.326;2023-03-13T00:16:04;20.45;;;5.75;;
44989;SDS011;30723;51.206;3.326;2023-03-13T00:18:33;14.23;;;4.32;;
44989;SDS011;30723;51.206;3.326;2023-03-13T00:21:00;19.73;;;5.03;;
44989;SDS011;30723;51.206;3.326;2023-03-13T00:23:32;20.77;;;6.28;;
44989;SDS011;30723;51.206;3.326;2023-03-13T00:26:00;19.77;;;5.15;;
44989;SDS011;30723;51.206;3.326;2023-03-13T00:28:30;21.23;;;5.90;;
44989;SDS011;30723;51.206;3.326;2023-03-13T00:31:05;16.33;;;5.05;;
44989;SDS011;30723;51.206;3.326;2023-03-13T00:33:34;20.80;;;4.75;;
44989;SDS011;30723;51.206;3.326;2023-03-13T00:36:06;18.60;;;4.45;;
44989;SDS011;30723;51.206;3.326;2023-03-13T00:38:35;12.30;;;3.78;;
44989;SDS011;30723;51.206;3.326;2023-03-13T00:41:06;5.55;;;2.08;;
44989;SDS011;30723;51.206;3.326;2023-03-13T00:43:36;7.22;;;2.05;;
44989;SDS011;30723;51.206;3.326;2023-03-13T00:46:04;3.55;;;1.65;;
44989;SDS011;30723;51.206;3.326;2023-03-13T00:48:31;2.40;;;1.20;;
44989;SDS011;30723;51.206;3.326;2023-03-13T00:50:58;1.75;;;1.38;;
44989;SDS011;30723;51.206;3.326;2023-03-13T00:53:25;1.13;;;0.57;;
44989;SDS011;30723;51.206;3.326;2023-03-13T01:00:51;3.22;;;1.80;;
44989;SDS011;30723;51.206;3.326;2023-03-13T01:03:17;7.00;;;2.05;;
44989;SDS011;30723;51.206;3.326;2023-03-13T01:05:44;3.72;;;1.98;;
44989;SDS011;30723;51.206;3.326;2023-03-13T01:08:09;3.72;;;0.90;;
44989;SDS011;30723;51.206;3.326;2023-03-13T01:10:35;0.25;;;0.25;;
44989;SDS011;30723;51.206;3.326;2023-03-13T01:13:01;2.53;;;1.73;;
44989;SDS011;30723;51.206;3.326;2023-03-13T01:15:29;1.33;;;0.40;;
44989;SDS011;30723;51.206;3.326;2023-03-13T01:17:58;3.90;;;1.67;;
44989;SDS011;30723;51.206;3.326;2023-03-13T01:20:25;3.92;;;1.40;;
44989;SDS011;30723;51.206;3.326;2023-03-13T01:22:53;2.47;;;1.33;;
44989;SDS011;30723;51.206;3.326;2023-03-13T01:25:20;1.40;;;0.70;;
44989;SDS011;30723;51.206;3.326;2023-03-13T01:27:46;1.05;;;0.63;;
44989;SDS011;30723;51.206;3.326;2023-03-13T01:30:13;3.95;;;1.70;;
44989;SDS011;30723;51.206;3.326;2023-03-13T01:32:40;3.67;;;1.13;;
44989;SDS011;30723;51.206;3.326;2023-03-13T01:35:07;1.92;;;1.08;;
44989;SDS011;30723;51.206;3.326;2023-03-13T01:37:33;4.65;;;0.98;;
44989;SDS011;30723;51.206;3.326;2023-03-13T01:40:00;3.05;;;1.50;;
44989;SDS011;30723;51.206;3.326;2023-03-13T01:42:26;1.25;;;0.73;;
44989;SDS011;30723;51.206;3.326;2023-03-13T01:44:54;2.45;;;2.08;;
44989;SDS011;30723;51.206;3.326;2023-03-13T01:47:22;3.13;;;0.82;;
44989;SDS011;30723;51.206;3.326;2023-03-13T01:49:48;1.00;;;0.90;;
44989;SDS011;30723;51.206;3.326;2023-03-13T01:52:17;1.02;;;0.77;;
44989;SDS011;30723;51.206;3.326;2023-03-13T01:54:52;1.95;;;1.58;;
44989;SDS011;30723;51.206;3.326;2023-03-13T01:57:24;0.98;;;0.60;;
44989;SDS011;30723;51.206;3.326;2023-03-13T02:02:34;2.90;;;1.73;;
44989;SDS011;30723;51.206;3.326;2023-03-13T02:05:02;2.60;;;1.33;;
44989;SDS011;30723;51.206;3.326;2023-03-13T02:07:36;2.20;;;1.42;;
44989;SDS011;30723;51.206;3.326;2023-03-13T02:10:09;2.58;;;0.50;;
44989;SDS011;30723;51.206;3.326;2023-03-13T02:12:40;0.82;;;0.65;;
44989;SDS011;30723;51.206;3.326;2023-03-13T02:15:08;0.55;;;0.45;;
44989;SDS011;30723;51.206;3.326;2023-03-13T02:17:40;2.03;;;0.80;;
44989;SDS011;30723;51.206;3.326;2023-03-13T02:20:09;3.08;;;1.50;;
44989;SDS011;30723;51.206;3.326;2023-03-13T02:28:32;5.03;;;2.05;;
44989;SDS011;30723;51.206;3.326;2023-03-13T02:30:58;2.22;;;1.48;;
44989;SDS011;30723;51.206;3.326;2023-03-13T02:33:27;3.35;;;1.80;;
44989;SDS011;30723;51.206;3.326;2023-03-13T02:35:55;5.03;;;1.75;;
44989;SDS011;30723;51.206;3.326;2023-03-13T02:38:24;5.80;;;2.47;;
44989;SDS011;30723;51.206;3.326;2023-03-13T02:40:53;3.10;;;1.83;;
44989;SDS011;30723;51.206;3.326;2023-03-13T02:43:39;2.55;;;1.48;;
44989;SDS011;30723;51.206;3.326;2023-03-13T02:46:14;1.23;;;1.13;;
44989;SDS011;30723;51.206;3.326;2023-03-13T02:48:46;6.57;;;2.75;;
44989;SDS011;30723;51.206;3.326;2023-03-13T02:52:13;1.85;;;1.50;;
44989;SDS011;30723;51.206;3.326;2023-03-13T02:54:52;3.65;;;2.55;;
44989;SDS011;30723;51.206;3.326;2023-03-13T02:57:46;3.20;;;1.90;;
44989;SDS011;30723;51.206;3.326;2023-03-13T03:00:32;3.10;;;1.60;;
44989;SDS011;30723;51.206;3.326;2023-03-13T03:03:17;4.05;;;2.15;;
44989;SDS011;30723;51.206;3.326;2023-03-13T03:06:03;9.25;;;2.63;;
44989;SDS011;30723;51.206;3.326;2023-03-13T03:08:49;6.88;;;2.45;;
44989;SDS011;30723;51.206;3.326;2023-03-13T03:11:34;5.43;;;2.88;;
44989;SDS011;30723;51.206;3.326;2023-03-13T03:14:20;6.93;;;2.65;;
44989;SDS011;30723;51.206;3.326;2023-03-13T03:17:06;4.53;;;2.10;;
44989;SDS011;30723;51.206;3.326;2023-03-13T03:19:32;10.90;;;2.83;;
44989;SDS011;30723;51.206;3.326;2023-03-13T03:22:17;2.85;;;2.42;;
44989;SDS011;30723;51.206;3.326;2023-03-13T03:25:05;5.07;;;2.38;;
44989;SDS011;30723;51.206;3.326;2023-03-13T03:27:50;3.03;;;1.63;;
44989;SDS011;30723;51.206;3.326;2023-03-13T03:30:36;1.70;;;0.73;;
44989;SDS011;30723;51.206;3.326;2023-03-13T03:33:22;6.20;;;2.22;;
44989;SDS011;30723;51.206;3.326;2023-03-13T03:36:12;1.83;;;1.48;;
44989;SDS011;30723;51.206;3.326;2023-03-13T03:38:57;3.05;;;2.22;;
44989;SDS011;30723;51.206;3.326;2023-03-13T03:41:23;3.85;;;1.50;;
44989;SDS011;30723;51.206;3.326;2023-03-13T03:44:08;3.08;;;0.95;;
44989;SDS011;30723;51.206;3.326;2023-03-13T03:46:54;1.83;;;1.13;;
44989;SDS011;30723;51.206;3.326;2023-03-13T03:49:40;1.40;;;1.08;;
44989;SDS011;30723;51.206;3.326;2023-03-13T03:52:27;4.10;;;1.63;;
44989;SDS011;30723;51.206;3.326;2023-03-13T03:55:14;4.18;;;2.60;;
44989;SDS011;30723;51.206;3.326;2023-03-13T03:57:40;3.22;;;1.67;;
44989;SDS011;30723;51.206;3.326;2023-03-13T04:00:07;1.88;;;1.08;;
44989;SDS011;30723;51.206;3.326;2023-03-13T04:05:04;1.58;;;1.08;;
44989;SDS011;30723;51.206;3.326;2023-03-13T04:07:30;6.38;;;1.58;;
44989;SDS011;30723;51.206;3.326;2023-03-13T04:09:57;1.13;;;1.00;;
44989;SDS011;30723;51.206;3.326;2023-03-13T04:12:23;3.70;;;1.55;;
44989;SDS011;30723;51.206;3.326;2023-03-13T04:14:50;2.80;;;1.17;;
44989;SDS011;30723;51.206;3.326;2023-03-13T04:17:17;17.25;;;2.28;;
44989;SDS011;30723;51.206;3.326;2023-03-13T04:19:43;2.95;;;1.30;;
44989;SDS011;30723;51.206;3.326;2023-03-13T04:22:10;8.60;;;1.98;;
44989;SDS011;30723;51.206;3.326;2023-03-13T04:24:36;0.77;;;0.77;;
44989;SDS011;30723;51.206;3.326;2023-03-13T04:27:02;7.25;;;1.55;;
44989;SDS011;30723;51.206;3.326;2023-03-13T04:29:31;7.72;;;2.25;;
44989;SDS011;30723;51.206;3.326;2023-03-13T04:31:58;7.20;;;1.58;;
44989;SDS011;30723;51.206;3.326;2023-03-13T04:34:25;1.83;;;1.00;;
44989;SDS011;30723;51.206;3.326;2023-03-13T04:36:51;10.55;;;1.77;;
44989;SDS011;30723;51.206;3.326;2023-03-13T04:39:18;1.38;;;0.80;;
44989;SDS011;30723;51.206;3.326;2023-03-13T04:41:50;0.73;;;0.60;;
44989;SDS011;30723;51.206;3.326;2023-03-13T04:44:17;1.52;;;0.88;;
44989;SDS011;30723;51.206;3.326;2023-03-13T04:46:44;2.85;;;1.10;;
44989;SDS011;30723;51.206;3.326;2023-03-13T04:49:11;7.47;;;1.55;;
44989;SDS011;30723;51.206;3.326;2023-03-13T04:51:39;1.77;;;0.63;;
44989;SDS011;30723;51.206;3.326;2023-03-13T04:54:06;3.47;;;1.35;;
44989;SDS011;30723;51.206;3.326;2023-03-13T04:56:33;1.35;;;1.25;;
44989;SDS011;30723;51.206;3.326;2023-03-13T04:59:00;0.40;;;0.40;;
44989;SDS011;30723;51.206;3.326;2023-03-13T05:01:27;2.78;;;0.88;;
44989;SDS011;30723;51.206;3.326;2023-03-13T05:03:54;2.67;;;1.75;;
44989;SDS011;30723;51.206;3.326;2023-03-13T05:06:21;6.03;;;1.25;;
44989;SDS011;30723;51.206;3.326;2023-03-13T05:08:48;14.88;;;1.67;;
44989;SDS011;30723;51.206;3.326;2023-03-13T05:11:14;6.13;;;1.27;;
44989;SDS011;30723;51.206;3.326;2023-03-13T05:13:41;0.98;;;0.73;;
44989;SDS011;30723;51.206;3.326;2023-03-13T05:16:08;2.85;;;1.08;;
44989;SDS011;30723;51.206;3.326;2023-03-13T05:18:34;2.70;;;1.20;;
44989;SDS011;30723;51.206;3.326;2023-03-13T05:21:01;5.80;;;1.60;;
44989;SDS011;30723;51.206;3.326;2023-03-13T05:23:27;2.95;;;1.70;;
44989;SDS011;30723;51.206;3.326;2023-03-13T05:25:54;3.22;;;1.55;;
44989;SDS011;30723;51.206;3.326;2023-03-13T05:28:20;3.67;;;1.00;;
44989;SDS011;30723;51.206;3.326;2023-03-13T05:30:47;6.70;;;3.20;;
44989;SDS011;30723;51.206;3.326;2023-03-13T05:33:13;7.53;;;1.38;;
44989;SDS011;30723;51.206;3.326;2023-03-13T05:35:41;7.60;;;2.00;;
44989;SDS011;30723;51.206;3.326;2023-03-13T05:38:07;7.82;;;1.73;;
44989;SDS011;30723;51.206;3.326;2023-03-13T05:40:34;3.35;;;1.00;;
44989;SDS011;30723;51.206;3.326;2023-03-13T05:43:01;2.63;;;0.95;;
44989;SDS011;30723;51.206;3.326;2023-03-13T05:45:28;7.10;;;0.90;;
44989;SDS011;30723;51.206;3.326;2023-03-13T05:47:54;7.65;;;0.63;;
44989;SDS011;30723;51.206;3.326;2023-03-13T05:50:23;1.40;;;0.77;;
44989;SDS011;30723;51.206;3.326;2023-03-13T05:52:50;0.40;;;0.40;;
44989;SDS011;30723;51.206;3.326;2023-03-13T05:55:17;2.47;;;0.50;;
44989;SDS011;30723;51.206;3.326;2023-03-13T05:57:46;2.45;;;1.10;;
44989;SDS011;30723;51.206;3.326;2023-03-13T06:00:13;1.70;;;1.00;;
44989;SDS011;30723;51.206;3.326;2023-03-13T06:02:42;2.65;;;0.90;;
44989;SDS011;30723;51.206;3.326;2023-03-13T06:05:09;2.38;;;1.25;;
44989;SDS011;30723;51.206;3.326;2023-03-13T06:07:35;5.28;;;0.55;;
44989;SDS011;30723;51.206;3.326;2023-03-13T06:10:02;4.18;;;2.10;;
44989;SDS011;30723;51.206;3.326;2023-03-13T06:12:30;2.50;;;0.80;;
44989;SDS011;30723;51.206;3.326;2023-03-13T06:14:56;0.85;;;0.65;;
44989;SDS011;30723;51.206;3.326;2023-03-13T06:17:22;27.65;;;1.52;;
44989;SDS011;30723;51.206;3.326;2023-03-13T06:19:49;1.33;;;0.88;;
44989;SDS011;30723;51.206;3.326;2023-03-13T06:22:16;0.93;;;0.93;;
44989;SDS011;30723;51.206;3.326;2023-03-13T06:24:42;7.32;;;1.38;;
44989;SDS011;30723;51.206;3.326;2023-03-13T06:27:09;3.38;;;1.48;;
44989;SDS011;30723;51.206;3.326;2023-03-13T06:29:35;18.85;;;1.75;;
44989;SDS011;30723;51.206;3.326;2023-03-13T06:32:02;1.17;;;0.88;;
44989;SDS011;30723;51.206;3.326;2023-03-13T06:34:29;5.75;;;2.50;;
44989;SDS011;30723;51.206;3.326;2023-03-13T06:36:55;1.48;;;0.70;;
44989;SDS011;30723;51.206;3.326;2023-03-13T06:39:22;2.22;;;0.82;;
44989;SDS011;30723;51.206;3.326;2023-03-13T06:41:48;4.22;;;0.68;;
44989;SDS011;30723;51.206;3.326;2023-03-13T06:44:14;1.13;;;0.82;;
44989;SDS011;30723;51.206;3.326;2023-03-13T06:46:41;1.80;;;0.82;;
44989;SDS011;30723;51.206;3.326;2023-03-13T06:49:07;2.60;;;1.50;;
44989;SDS011;30723;51.206;3.326;2023-03-13T06:51:34;2.83;;;1.15;;
44989;SDS011;30723;51.206;3.326;2023-03-13T06:54:01;1.58;;;0.93;;
44989;SDS011;30723;51.206;3.326;2023-03-13T06:56:28;3.15;;;0.80;;
44989;SDS011;30723;51.206;3.326;2023-03-13T06:58:55;3.22;;;1.55;;
44989;SDS011;30723;51.206;3.326;2023-03-13T07:01:22;9.15;;;2.03;;
44989;SDS011;30723;51.206;3.326;2023-03-13T07:03:48;4.10;;;1.80;;
44989;SDS011;30723;51.206;3.326;2023-03-13T07:06:15;4.40;;;1.90;;
44989;SDS011;30723;51.206;3.326;2023-03-13T07:08:41;14.30;;;1.50;;
44989;SDS011;30723;51.206;3.326;2023-03-13T07:11:09;3.78;;;2.08;;
44989;SDS011;30723;51.206;3.326;2023-03-13T07:13:36;11.27;;;1.27;;
44989;SDS011;30723;51.206;3.326;2023-03-13T07:16:03;3.58;;;1.58;;
44989;SDS011;30723;51.206;3.326;2023-03-13T07:18:32;3.55;;;1.92;;
44989;SDS011;30723;51.206;3.326;2023-03-13T07:21:00;6.07;;;1.55;;
44989;SDS011;30723;51.206;3.326;2023-03-13T07:23:31;9.77;;;2.55;;
44989;SDS011;30723;51.206;3.326;2023-03-13T07:26:00;3.15;;;1.40;;
44989;SDS011;30723;51.206;3.326;2023-03-13T07:28:28;1.70;;;0.40;;
44989;SDS011;30723;51.206;3.326;2023-03-13T07:31:17;1.42;;;0.93;;
44989;SDS011;30723;51.206;3.326;2023-03-13T07:33:44;11.00;;;1.70;;
44989;SDS011;30723;51.206;3.326;2023-03-13T07:36:12;2.25;;;0.82;;
44989;SDS011;30723;51.206;3.326;2023-03-13T07:38:39;2.17;;;0.95;;
44989;SDS011;30723;51.206;3.326;2023-03-13T07:41:09;1.58;;;0.80;;
44989;SDS011;30723;51.206;3.326;2023-03-13T07:43:37;1.63;;;0.98;;
44989;SDS011;30723;51.206;3.326;2023-03-13T07:46:04;1.67;;;1.00;;
44989;SDS011;30723;51.206;3.326;2023-03-13T07:48:33;0.73;;;0.45;;
44989;SDS011;30723;51.206;3.326;2023-03-13T07:51:01;9.25;;;4.03;;
44989;SDS011;30723;51.206;3.326;2023-03-13T07:53:29;5.75;;;2.60;;
44989;SDS011;30723;51.206;3.326;2023-03-13T07:56:03;8.25;;;1.92;;
44989;SDS011;30723;51.206;3.326;2023-03-13T07:58:35;4.05;;;1.33;;
44989;SDS011;30723;51.206;3.326;2023-03-13T08:01:08;3.30;;;2.00;;
44989;SDS011;30723;51.206;3.326;2023-03-13T08:03:49;2.38;;;1.17;;
44989;SDS011;30723;51.206;3.326;2023-03-13T08:06:16;1.27;;;0.98;;
44989;SDS011;30723;51.206;3.326;2023-03-13T08:08:44;1.17;;;0.52;;
44989;SDS011;30723;51.206;3.326;2023-03-13T08:11:12;1.15;;;0.75;;
44989;SDS011;30723;51.206;3.326;2023-03-13T08:13:45;4.68;;;0.63;;
44989;SDS011;30723;51.206;3.326;2023-03-13T08:16:18;4.35;;;0.75;;
44989;SDS011;30723;51.206;3.326;2023-03-13T08:18:47;8.80;;;0.40;;
44989;SDS011;30723;51.206;3.326;2023-03-13T08:21:20;1.17;;;0.95;;
44989;SDS011;30723;51.206;3.326;2023-03-13T08:23:52;0.95;;;0.45;;
44989;SDS011;30723;51.206;3.326;2023-03-13T08:26:22;0.88;;;0.47;;
44989;SDS011;30723;51.206;3.326;2023-03-13T08:28:53;0.55;;;0.50;;
44989;SDS011;30723;51.206;3.326;2023-03-13T08:31:26;2.63;;;0.80;;
44989;SDS011;30723;51.206;3.326;2023-03-13T08:33:55;0.43;;;0.43;;
44989;SDS011;30723;51.206;3.326;2023-03-13T08:36:23;3.28;;;0.57;;
44989;SDS011;30723;51.206;3.326;2023-03-13T08:38:51;2.00;;;0.25;;
44989;SDS011;30723;51.206;3.326;2023-03-13T08:41:21;1.25;;;0.52;;
44989;SDS011;30723;51.206;3.326;2023-03-13T08:43:53;0.40;;;0.25;;
44989;SDS011;30723;51.206;3.326;2023-03-13T08:46:20;0.25;;;0.20;;
44989;SDS011;30723;51.206;3.326;2023-03-13T08:48:48;0.85;;;0.80;;
44989;SDS011;30723;51.206;3.326;2023-03-13T08:51:17;0.88;;;0.60;;
44989;SDS011;30723;51.206;3.326;2023-03-13T08:53:44;1.38;;;0.82;;
44989;SDS011;30723;51.206;3.326;2023-03-13T08:56:11;1.23;;;0.68;;
44989;SDS011;30723;51.206;3.326;2023-03-13T08:58:39;0.30;;;0.30;;
44989;SDS011;30723;51.206;3.326;2023-03-13T09:01:10;0.57;;;0.50;;
44989;SDS011;30723;51.206;3.326;2023-03-13T09:03:37;0.30;;;0.30;;
44989;SDS011;30723;51.206;3.326;2023-03-13T09:06:04;2.33;;;0.70;;
44989;SDS011;30723;51.206;3.326;2023-03-13T09:08:32;2.05;;;0.22;;
44989;SDS011;30723;51.206;3.326;2023-03-13T09:11:00;2.78;;;0.43;;
44989;SDS011;30723;51.206;3.326;2023-03-13T09:13:29;2.17;;;0.73;;
44989;SDS011;30723;51.206;3.326;2023-03-13T09:15:58;2.15;;;0.65;;
44989;SDS011;30723;51.206;3.326;2023-03-13T09:18:30;1.95;;;0.95;;
44989;SDS011;30723;51.206;3.326;2023-03-13T09:20:58;1.75;;;0.75;;
44989;SDS011;30723;51.206;3.326;2023-03-13T09:23:25;1.70;;;0.90;;
44989;SDS011;30723;51.206;3.326;2023-03-13T09:25:53;2.78;;;0.43;;
44989;SDS011;30723;51.206;3.326;2023-03-13T09:28:21;3.13;;;0.43;;
44989;SDS011;30723;51.206;3.326;2023-03-13T09:30:49;1.85;;;0.68;;
44989;SDS011;30723;51.206;3.326;2023-03-13T09:33:17;3.85;;;1.10;;
44989;SDS011;30723;51.206;3.326;2023-03-13T09:35:45;1.20;;;1.08;;
44989;SDS011;30723;51.206;3.326;2023-03-13T09:38:15;2.30;;;1.30;;
44989;SDS011;30723;51.206;3.326;2023-03-13T09:40:46;1.65;;;0.60;;
44989;SDS011;30723;51.206;3.326;2023-03-13T09:43:18;2.25;;;1.42;;
44989;SDS011;30723;51.206;3.326;2023-03-13T09:46:15;1.92;;;0.75;;
44989;SDS011;30723;51.206;3.326;2023-03-13T09:48:52;1.05;;;0.38;;
44989;SDS011;30723;51.206;3.326;2023-03-13T09:51:36;4.65;;;0.65;;
44989;SDS011;30723;51.206;3.326;2023-03-13T09:54:27;0.75;;;0.30;;
44989;SDS011;30723;51.206;3.326;2023-03-13T09:57:11;3.85;;;0.93;;
44989;SDS011;30723;51.206;3.326;2023-03-13T10:00:25;5.40;;;0.80;;
44989;SDS011;30723;51.206;3.326;2023-03-13T10:02:46;1.23;;;0.68;;
44989;SDS011;30723;51.206;3.326;2023-03-13T10:05:22;2.88;;;0.95;;
44989;SDS011;30723;51.206;3.326;2023-03-13T10:07:49;6.03;;;0.73;;
44989;SDS011;30723;51.206;3.326;2023-03-13T10:10:49;1.38;;;0.52;;
44989;SDS011;30723;51.206;3.326;2023-03-13T10:13:38;0.65;;;0.65;;
44989;SDS011;30723;51.206;3.326;2023-03-13T10:17:00;2.47;;;1.05;;
44989;SDS011;30723;51.206;3.326;2023-03-13T10:19:30;2.28;;;0.70;;
44989;SDS011;30723;51.206;3.326;2023-03-13T10:22:02;2.53;;;1.30;;
44989;SDS011;30723;51.206;3.326;2023-03-13T10:24:37;1.92;;;0.68;;
44989;SDS011;30723;51.206;3.326;2023-03-13T10:27:10;0.25;;;0.25;;
44989;SDS011;30723;51.206;3.326;2023-03-13T10:29:39;6.95;;;1.35;;
44989;SDS011;30723;51.206;3.326;2023-03-13T10:32:07;4.03;;;0.73;;
44989;SDS011;30723;51.206;3.326;2023-03-13T10:37:29;1.27;;;0.88;;
44989;SDS011;30723;51.206;3.326;2023-03-13T10:40:19;1.10;;;0.43;;
44989;SDS011;30723;51.206;3.326;2023-03-13T10:42:52;9.48;;;1.10;;
44989;SDS011;30723;51.206;3.326;2023-03-13T10:45:24;7.18;;;1.40;;
44989;SDS011;30723;51.206;3.326;2023-03-13T10:47:59;0.93;;;0.50;;
44989;SDS011;30723;51.206;3.326;2023-03-13T10:50:31;8.48;;;1.25;;
44989;SDS011;30723;51.206;3.326;2023-03-13T10:53:06;2.17;;;0.82;;
44989;SDS011;30723;51.206;3.326;2023-03-13T10:55:56;6.35;;;0.90;;
44989;SDS011;30723;51.206;3.326;2023-03-13T10:58:40;3.05;;;0.98;;
44989;SDS011;30723;51.206;3.326;2023-03-13T11:01:39;7.90;;;1.55;;
44989;SDS011;30723;51.206;3.326;2023-03-13T11:07:05;4.90;;;1.10;;
44989;SDS011;30723;51.206;3.326;2023-03-13T11:12:46;4.57;;;1.40;;
44989;SDS011;30723;51.206;3.326;2023-03-13T11:15:24;4.07;;;0.95;;
44989;SDS011;30723;51.206;3.326;2023-03-13T11:18:02;5.70;;;1.50;;
44989;SDS011;30723;51.206;3.326;2023-03-13T11:20:43;6.22;;;1.38;;
44989;SDS011;30723;51.206;3.326;2023-03-13T11:31:06;10.32;;;2.20;;
44989;SDS011;30723;51.206;3.326;2023-03-13T11:36:32;6.60;;;1.65;;
44989;SDS011;30723;51.206;3.326;2023-03-13T11:56:55;16.02;;;3.17;;
44989;SDS011;30723;51.206;3.326;2023-03-13T12:04:51;10.02;;;2.83;;
44989;SDS011;30723;51.206;3.326;2023-03-13T12:07:29;4.25;;;1.88;;
44989;SDS011;30723;51.206;3.326;2023-03-13T12:10:14;9.30;;;2.22;;
44989;SDS011;30723;51.206;3.326;2023-03-13T12:12:56;6.55;;;1.13;;
44989;SDS011;30723;51.206;3.326;2023-03-13T12:15:45;6.03;;;2.17;;
44989;SDS011;30723;51.206;3.326;2023-03-13T12:18:30;5.32;;;1.75;;
44989;SDS011;30723;51.206;3.326;2023-03-13T12:35:06;10.10;;;1.50;;
44989;SDS011;30723;51.206;3.326;2023-03-13T12:38:10;7.07;;;2.80;;
44989;SDS011;30723;51.206;3.326;2023-03-13T12:43:46;4.85;;;1.48;;
44989;SDS011;30723;51.206;3.326;2023-03-13T12:46:22;4.65;;;1.45;;
44989;SDS011;30723;51.206;3.326;2023-03-13T12:59:53;4.80;;;1.67;;
44989;SDS011;30723;51.206;3.326;2023-03-13T13:02:27;7.30;;;1.95;;
44989;SDS011;30723;51.206;3.326;2023-03-13T13:07:22;1.70;;;0.90;;
44989;SDS011;30723;51.206;3.326;2023-03-13T13:10:00;3.75;;;1.40;;
44989;SDS011;30723;51.206;3.326;2023-03-13T13:12:26;5.93;;;1.08;;
44989;SDS011;30723;51.206;3.326;2023-03-13T13:14:54;3.22;;;0.98;;
44989;SDS011;30723;51.206;3.326;2023-03-13T13:17:33;5.18;;;1.40;;
44989;SDS011;30723;51.206;3.326;2023-03-13T13:22:52;3.72;;;1.08;;
44989;SDS011;30723;51.206;3.326;2023-03-13T13:25:29;5.05;;;1.77;;
44989;SDS011;30723;51.206;3.326;2023-03-13T13:28:37;5.28;;;1.48;;
44989;SDS011;30723;51.206;3.326;2023-03-13T13:30:58;12.30;;;2.15;;
44989;SDS011;30723;51.206;3.326;2023-03-13T13:38:45;15.52;;;1.38;;
44989;SDS011;30723;51.206;3.326;2023-03-13T13:43:39;6.78;;;1.55;;
44989;SDS011;30723;51.206;3.326;2023-03-13T13:46:22;3.47;;;0.75;;
44989;SDS011;30723;51.206;3.326;2023-03-13T13:51:34;7.40;;;1.55;;
44989;SDS011;30723;51.206;3.326;2023-03-13T13:54:02;0.50;;;0.45;;
44989;SDS011;30723;51.206;3.326;2023-03-13T13:56:55;17.70;;;3.33;;
44989;SDS011;30723;51.206;3.326;2023-03-13T13:59:26;8.82;;;4.80;;
44989;SDS011;30723;51.206;3.326;2023-03-13T14:04:29;5.22;;;2.08;;
44989;SDS011;30723;51.206;3.326;2023-03-13T14:07:36;2.80;;;1.33;;
44989;SDS011;30723;51.206;3.326;2023-03-13T14:10:15;1.85;;;1.33;;
44989;SDS011;30723;51.206;3.326;2023-03-13T14:13:09;8.40;;;1.08;;
44989;SDS011;30723;51.206;3.326;2023-03-13T14:15:44;8.05;;;1.73;;
44989;SDS011;30723;51.206;3.326;2023-03-13T14:20:52;4.78;;;1.10;;
44989;SDS011;30723;51.206;3.326;2023-03-13T14:23:30;8.88;;;3.25;;
44989;SDS011;30723;51.206;3.326;2023-03-13T14:26:13;7.38;;;3.53;;
44989;SDS011;30723;51.206;3.326;2023-03-13T14:28:51;15.48;;;3.92;;
44989;SDS011;30723;51.206;3.326;2023-03-13T14:31:28;4.50;;;2.58;;
44989;SDS011;30723;51.206;3.326;2023-03-13T14:34:00;10.50;;;4.35;;
44989;SDS011;30723;51.206;3.326;2023-03-13T14:36:27;13.73;;;4.60;;
44989;SDS011;30723;51.206;3.326;2023-03-13T14:38:54;5.13;;;1.40;;
44989;SDS011;30723;51.206;3.326;2023-03-13T14:43:54;8.05;;;3.35;;
44989;SDS011;30723;51.206;3.326;2023-03-13T14:46:32;12.23;;;2.53;;
44989;SDS011;30723;51.206;3.326;2023-03-13T14:49:07;1.77;;;0.50;;
44989;SDS011;30723;51.206;3.326;2023-03-13T14:51:41;10.77;;;3.95;;
44989;SDS011;30723;51.206;3.326;2023-03-13T14:57:05;11.65;;;3.85;;
44989;SDS011;30723;51.206;3.326;2023-03-13T14:59:33;16.02;;;7.93;;
44989;SDS011;30723;51.206;3.326;2023-03-13T15:02:11;29.30;;;10.85;;
44989;SDS011;30723;51.206;3.326;2023-03-13T15:07:24;1.45;;;1.05;;
44989;SDS011;30723;51.206;3.326;2023-03-13T15:10:19;7.32;;;1.95;;
44989;SDS011;30723;51.206;3.326;2023-03-13T15:12:55;2.78;;;0.63;;
44989;SDS011;30723;51.206;3.326;2023-03-13T15:15:22;8.02;;;4.32;;
44989;SDS011;30723;51.206;3.326;2023-03-13T15:17:49;12.48;;;1.45;;
44989;SDS011;30723;51.206;3.326;2023-03-13T15:20:16;5.70;;;1.65;;
44989;SDS011;30723;51.206;3.326;2023-03-13T15:22:43;2.35;;;1.35;;
44989;SDS011;30723;51.206;3.326;2023-03-13T15:25:14;0.70;;;0.55;;
44989;SDS011;30723;51.206;3.326;2023-03-13T15:27:43;2.38;;;2.17;;
44989;SDS011;30723;51.206;3.326;2023-03-13T15:30:19;1.48;;;0.82;;
44989;SDS011;30723;51.206;3.326;2023-03-13T15:32:49;1.67;;;0.82;;
44989;SDS011;30723;51.206;3.326;2023-03-13T15:37:57;3.13;;;0.68;;
44989;SDS011;30723;51.206;3.326;2023-03-13T15:40:25;6.68;;;1.77;;
44989;SDS011;30723;51.206;3.326;2023-03-13T15:42:53;7.55;;;3.08;;
44989;SDS011;30723;51.206;3.326;2023-03-13T15:45:19;4.60;;;2.47;;
44989;SDS011;30723;51.206;3.326;2023-03-13T15:47:46;4.43;;;2.17;;
44989;SDS011;30723;51.206;3.326;2023-03-13T15:50:15;7.18;;;1.85;;
44989;SDS011;30723;51.206;3.326;2023-03-13T15:52:43;2.45;;;1.50;;
44989;SDS011;30723;51.206;3.326;2023-03-13T15:55:12;0.63;;;0.40;;
44989;SDS011;30723;51.206;3.326;2023-03-13T15:57:55;5.80;;;2.22;;
44989;SDS011;30723;51.206;3.326;2023-03-13T16:00:22;3.30;;;0.28;;
44989;SDS011;30723;51.206;3.326;2023-03-13T16:02:50;4.97;;;2.83;;
44989;SDS011;30723;51.206;3.326;2023-03-13T16:05:16;5.93;;;1.98;;
44989;SDS011;30723;51.206;3.326;2023-03-13T16:07:42;3.33;;;2.00;;
44989;SDS011;30723;51.206;3.326;2023-03-13T16:10:23;7.97;;;2.95;;
44989;SDS011;30723;51.206;3.326;2023-03-13T16:12:52;5.28;;;1.23;;
44989;SDS011;30723;51.206;3.326;2023-03-13T16:15:19;7.50;;;1.38;;
44989;SDS011;30723;51.206;3.326;2023-03-13T16:17:45;15.20;;;1.58;;
44989;SDS011;30723;51.206;3.326;2023-03-13T16:20:15;1.35;;;1.20;;
44989;SDS011;30723;51.206;3.326;2023-03-13T16:22:44;12.57;;;5.47;;
44989;SDS011;30723;51.206;3.326;2023-03-13T16:25:12;9.35;;;3.35;;
44989;SDS011;30723;51.206;3.326;2023-03-13T16:27:40;6.47;;;2.10;;
44989;SDS011;30723;51.206;3.326;2023-03-13T16:30:17;3.28;;;2.00;;
44989;SDS011;30723;51.206;3.326;2023-03-13T16:32:47;9.83;;;3.23;;
44989;SDS011;30723;51.206;3.326;2023-03-13T16:35:12;3.80;;;2.22;;
44989;SDS011;30723;51.206;3.326;2023-03-13T16:37:39;6.95;;;2.20;;
44989;SDS011;30723;51.206;3.326;2023-03-13T16:40:11;1.98;;;1.20;;
44989;SDS011;30723;51.206;3.326;2023-03-13T16:42:38;11.40;;;3.75;;
44989;SDS011;30723;51.206;3.326;2023-03-13T16:45:04;8.77;;;2.65;;
44989;SDS011;30723;51.206;3.326;2023-03-13T16:47:30;4.75;;;1.95;;
44989;SDS011;30723;51.206;3.326;2023-03-13T16:49:56;9.43;;;2.53;;
44989;SDS011;30723;51.206;3.326;2023-03-13T16:52:22;1.88;;;1.38;;
44989;SDS011;30723;51.206;3.326;2023-03-13T16:54:48;5.22;;;1.75;;
44989;SDS011;30723;51.206;3.326;2023-03-13T16:57:15;14.65;;;4.50;;
44989;SDS011;30723;51.206;3.326;2023-03-13T16:59:43;9.07;;;1.75;;
44989;SDS011;30723;51.206;3.326;2023-03-13T17:02:16;10.75;;;2.75;;
44989;SDS011;30723;51.206;3.326;2023-03-13T17:04:43;9.43;;;1.80;;
44989;SDS011;30723;51.206;3.326;2023-03-13T17:07:20;14.82;;;2.28;;
44989;SDS011;30723;51.206;3.326;2023-03-13T17:09:48;1.05;;;0.63;;
44989;SDS011;30723;51.206;3.326;2023-03-13T17:12:14;2.83;;;0.85;;